Time;durP1;ratioP1;P1;durP2;ratioP2;P2;SDS_P1;SDS_P2;PMS_P1;PMS_P2;Temp;Humidity;BMP_temperature;BMP_pressure;BME280_temperature;BME280_humidity;BME280_pressure;Samples;Min_cycle;Max_cycle;Signal;HPM_P1;HPM_P2
2020/12/02 00:00:45;;;;;;;10.60;4.30;;;;;;;8.64;85.21;101944.53;5095249;28;20044;-51
2020/12/02 00:03:24;;;;;;;15.60;4.32;;;;;;;8.63;84.99;101937.38;5095730;28;20083;-51
2020/12/02 00:05:53;;;;;;;11.23;3.65;;;;;;;8.63;84.99;101934.63;5094874;28;20477;-51
2020/12/02 00:08:31;;;;;;;16.10;3.60;;;;;;;8.62;84.86;101924.69;5095309;28;20065;-51
2020/12/02 00:11:06;;;;;;;13.50;3.78;;;;;;;8.61;84.97;101934.09;5093268;28;20105;-54
2020/12/02 00:13:38;;;;;;;16.70;4.22;;;;;;;8.61;84.94;101923.03;5094739;28;20101;-52
2020/12/02 00:16:06;;;;;;;17.95;4.72;;;;;;;8.61;84.80;101923.88;5095335;28;20116;-51
2020/12/02 00:18:34;;;;;;;13.65;4.30;;;;;;;8.60;84.76;101921.44;5095326;28;20063;-52
2020/12/02 00:21:02;;;;;;;9.93;4.35;;;;;;;8.58;84.86;101907.91;5094802;28;20119;-52
2020/12/02 00:23:30;;;;;;;9.68;3.13;;;;;;;8.57;84.89;101915.41;5091784;28;20051;-50
2020/12/02 00:25:56;;;;;;;10.50;3.83;;;;;;;8.59;84.83;101912.31;5074604;28;20063;-54
2020/12/02 00:28:22;;;;;;;15.32;3.85;;;;;;;8.58;84.86;101907.91;5075182;28;20462;-50
2020/12/02 00:30:48;;;;;;;12.82;3.00;;;;;;;8.60;84.83;101907.63;5084360;28;20044;-52
2020/12/02 00:33:19;;;;;;;10.80;3.05;;;;;;;8.57;84.97;101901.59;5095385;28;20509;-52
2020/12/02 00:35:45;;;;;;;16.30;4.22;;;;;;;8.59;84.81;101917.84;5095051;28;20040;-53
2020/12/02 00:38:13;;;;;;;14.73;4.15;;;;;;;8.59;84.81;101909.56;5093669;28;20129;-52
2020/12/02 00:40:44;;;;;;;11.75;3.03;;;;;;;8.61;84.78;101917.53;5094390;28;20109;-51
2020/12/02 00:43:20;;;;;;;8.57;3.55;;;;;;;8.61;84.59;101929.41;5093973;28;20044;-49
2020/12/02 00:45:48;;;;;;;12.88;2.63;;;;;;;8.60;84.56;101922.25;5093821;28;20051;-55
2020/12/02 00:48:17;;;;;;;11.45;2.47;;;;;;;8.58;84.54;101914.25;5094519;28;20063;-56
2020/12/02 00:50:45;;;;;;;7.68;2.25;;;;;;;8.60;84.49;101916.72;5076448;28;20041;-51
2020/12/02 00:53:24;;;;;;;6.25;2.67;;;;;;;8.62;84.52;101911.72;5084918;28;20043;-50
2020/12/02 00:55:51;;;;;;;4.95;2.38;;;;;;;8.64;84.56;101909.47;5090231;28;20641;-54
2020/12/02 00:58:40;;;;;;;9.10;2.28;;;;;;;8.62;84.79;101903.44;5086659;28;20506;-50
2020/12/02 01:01:13;;;;;;;6.40;2.60;;;;;;;8.61;84.64;101899.03;5081159;28;20085;-52
2020/12/02 01:03:40;;;;;;;11.48;2.72;;;;;;;8.63;84.58;101905.06;5091098;28;20075;-57
2020/12/02 01:06:11;;;;;;;6.82;2.38;;;;;;;8.63;84.72;101905.06;5094543;28;20074;-54
2020/12/02 01:08:40;;;;;;;8.45;3.40;;;;;;;8.63;84.63;101895.97;5083718;28;20035;-53
2020/12/02 01:11:18;;;;;;;9.95;2.72;;;;;;;8.61;84.80;101901.78;5078693;28;20098;-53
2020/12/02 01:13:45;;;;;;;8.43;3.42;;;;;;;8.59;84.77;101895.75;5090901;28;20099;-52
2020/12/02 01:16:17;;;;;;;11.05;3.28;;;;;;;8.58;85.02;101894.94;5093928;28;20131;-50
2020/12/02 01:18:45;;;;;;;9.05;3.22;;;;;;;8.58;85.08;101886.66;5084801;28;20047;-50
2020/12/02 01:21:31;;;;;;;7.28;2.38;;;;;;;8.58;84.98;101892.19;5091793;28;20055;-54
2020/12/02 01:24:06;;;;;;;4.82;2.35;;;;;;;8.61;84.87;101893.50;5090581;28;20406;-49
2020/12/02 01:26:45;;;;;;;7.25;2.70;;;;;;;8.60;85.11;101891.06;5093563;28;20032;-53
2020/12/02 01:29:18;;;;;;;11.15;3.45;;;;;;;8.58;85.07;101894.13;5082446;28;20036;-53
2020/12/02 01:31:54;;;;;;;5.53;2.45;;;;;;;8.59;85.07;101884.72;5093807;28;20043;-51
2020/12/02 01:34:22;;;;;;;7.68;2.70;;;;;;;8.59;85.06;101887.47;5092154;28;20110;-52
2020/12/02 01:37:05;;;;;;;4.30;2.20;;;;;;;8.58;85.16;101872.03;5090138;28;20075;-49
2020/12/02 01:39:36;;;;;;;6.95;2.35;;;;;;;8.59;85.27;101859.88;5081469;28;20041;-52
2020/12/02 01:42:04;;;;;;;3.45;1.88;;;;;;;8.58;85.23;101859.06;5073595;28;20140;-50
2020/12/02 01:44:30;;;;;;;6.72;2.60;;;;;;;8.60;85.12;101856.00;5077047;28;20119;-54
2020/12/02 01:47:06;;;;;;;10.63;3.67;;;;;;;8.61;84.98;101846.59;5085725;28;20127;-49
2020/12/02 01:49:41;;;;;;;8.05;4.00;;;;;;;8.60;85.48;101844.13;5085518;28;20481;-52
2020/12/02 01:52:42;;;;;;;6.82;3.30;;;;;;;8.61;85.61;101843.00;5087660;28;20486;-49
2020/12/02 01:55:14;;;;;;;3.42;2.92;;;;;;;8.59;85.64;101837.78;5090645;28;20371;-52
2020/12/02 01:57:40;;;;;;;;;;;;;;;8.58;85.96;101841.66;5086694;28;20033;-54
2020/12/02 02:00:15;;;;;;;10.70;3.15;;;;;;;8.58;85.57;101841.66;5091117;28;19920;-50
2020/12/02 02:03:10;;;;;;;5.00;3.28;;;;;;;8.60;85.45;101838.63;5087337;28;20043;-52
2020/12/02 02:05:56;;;;;;;5.97;3.15;;;;;;;8.59;85.62;101837.78;5092224;28;20063;-49
2020/12/02 02:08:30;;;;;;;8.07;4.70;;;;;;;8.59;85.69;101835.03;5092196;28;20071;-50
2020/12/02 02:11:01;;;;;;;9.70;4.43;;;;;;;8.61;85.73;101830.03;5071630;28;20445;-49
2020/12/02 02:13:36;;;;;;;5.72;3.80;;;;;;;8.61;85.77;101835.53;5072051;28;20032;-49
2020/12/02 02:16:11;;;;;;;12.23;4.75;;;;;;;8.61;85.88;101840.25;5072914;28;20037;-50
2020/12/02 02:18:38;;;;;;;9.95;4.50;;;;;;;8.61;85.91;101821.75;5071336;28;20082;-49
2020/12/02 02:21:17;;;;;;;11.00;5.20;;;;;;;8.62;86.02;101825.31;5063508;28;20468;-52
2020/12/02 02:23:44;;;;;;;19.10;7.15;;;;;;;8.62;86.00;101820.63;5072337;28;20083;-52
2020/12/02 02:26:13;;;;;;;16.73;10.45;;;;;;;8.59;86.10;101821.22;5072522;28;20068;-49
2020/12/02 02:28:47;;;;;;;18.17;11.20;;;;;;;8.58;86.22;101808.53;5037231;28;20037;-49
2020/12/02 02:31:19;;;;;;;18.25;10.82;;;;;;;8.56;86.26;101808.03;5071808;28;20494;-49
2020/12/02 02:33:47;;;;;;;14.07;9.73;;;;;;;8.55;85.91;101803.66;5072714;28;20131;-50
2020/12/02 02:36:18;;;;;;;12.50;6.72;;;;;;;8.53;86.38;101808.66;5072255;28;20475;-50
2020/12/02 02:38:45;;;;;;;12.23;6.25;;;;;;;8.52;86.36;101801.50;5072051;28;20127;-49
2020/12/02 02:41:11;;;;;;;17.83;6.20;;;;;;;8.53;86.49;101801.19;5068152;28;20071;-48
2020/12/02 02:43:39;;;;;;;12.57;5.50;;;;;;;8.52;86.40;101793.22;5073221;28;20083;-54
2020/12/02 02:46:07;;;;;;;6.85;4.53;;;;;;;8.52;86.43;101798.75;5072096;28;20449;-50
2020/12/02 02:48:34;;;;;;;7.60;4.40;;;;;;;8.48;86.52;101783.91;5071938;28;20093;-52
2020/12/02 02:51:01;;;;;;;8.60;4.22;;;;;;;8.47;86.62;101774.00;5071459;28;20452;-49
2020/12/02 02:53:28;;;;;;;9.75;4.38;;;;;;;8.48;86.83;101770.13;5071774;28;20052;-51
2020/12/02 02:55:56;;;;;;;8.23;4.25;;;;;;;8.48;86.87;101753.56;5072389;28;20098;-49
2020/12/02 02:58:25;;;;;;;7.82;3.85;;;;;;;8.44;86.65;101764.41;5052972;28;20084;-49
2020/12/02 03:00:56;;;;;;;6.75;3.67;;;;;;;8.42;86.84;101760.28;5072027;28;20032;-51
2020/12/02 03:03:23;;;;;;;9.38;3.60;;;;;;;8.37;86.75;101752.94;5072508;28;20032;-49
2020/12/02 03:05:49;;;;;;;6.03;2.92;;;;;;;8.31;86.67;101743.13;5054320;28;20477;-51
2020/12/02 03:08:17;;;;;;;7.72;3.85;;;;;;;8.28;86.84;101741.00;5072656;28;20498;-50
2020/12/02 03:10:46;;;;;;;7.75;2.67;;;;;;;8.25;86.87;101738.81;5087048;28;20127;-50
2020/12/02 03:13:36;;;;;;;7.70;2.67;;;;;;;8.24;87.29;101730.81;5092628;28;20558;-52
2020/12/02 03:16:21;;;;;;;5.28;2.22;;;;;;;8.23;87.05;101729.22;5078826;28;20040;-49
2020/12/02 03:18:48;;;;;;;4.68;2.33;;;;;;;8.21;86.88;101717.63;5093475;28;20440;-52
2020/12/02 03:21:17;;;;;;;5.22;2.03;;;;;;;8.21;86.91;101720.41;5095643;28;20040;-51
2020/12/02 03:23:43;;;;;;;3.55;2.45;;;;;;;8.18;86.89;101710.78;5094722;28;20093;-49
2020/12/02 03:26:12;;;;;;;5.13;1.67;;;;;;;8.17;86.99;101705.59;5076355;28;20474;-49
2020/12/02 03:28:38;;;;;;;4.43;1.75;;;;;;;8.16;87.13;101707.53;5074247;28;20043;-50
2020/12/02 03:31:10;;;;;;;4.03;1.90;;;;;;;8.16;87.19;101695.66;5095663;28;20040;-49
2020/12/02 03:33:36;;;;;;;2.87;1.50;;;;;;;8.18;87.11;101690.69;5095593;28;20127;-51
2020/12/02 03:36:03;;;;;;;5.13;1.67;;;;;;;8.18;87.25;101688.72;5080360;28;20854;-49
2020/12/02 03:38:29;;;;;;;3.25;1.70;;;;;;;8.20;87.23;101682.91;5077228;28;20070;-50
2020/12/02 03:40:56;;;;;;;4.40;2.20;;;;;;;8.23;87.09;101679.56;5084603;28;20470;-52
2020/12/02 03:43:22;;;;;;;3.05;2.38;;;;;;;8.25;87.19;101674.53;5076087;28;20090;-52
2020/12/02 03:45:50;;;;;;;2.80;2.47;;;;;;;8.29;87.25;101659.84;5082947;28;20038;-50
2020/12/02 03:48:17;;;;;;;2.17;1.58;;;;;;;8.33;87.21;101668.34;5087388;28;20097;-59
2020/12/02 03:50:45;;;;;;;4.18;2.03;;;;;;;8.34;87.33;101658.94;5085644;28;20475;-49
2020/12/02 03:53:13;;;;;;;5.65;2.75;;;;;;;8.38;87.17;101652.50;5095353;28;20123;-50
2020/12/02 03:55:39;;;;;;;4.20;2.25;;;;;;;8.40;87.45;101639.19;5095122;28;20036;-51
2020/12/02 03:58:06;;;;;;;3.47;1.90;;;;;;;8.44;87.09;101636.66;5092715;28;20229;-49
2020/12/02 04:00:33;;;;;;;6.07;2.00;;;;;;;8.44;86.96;101636.66;5095017;28;20123;-49
2020/12/02 04:03:00;;;;;;;6.65;2.33;;;;;;;8.44;86.96;101634.72;5076945;28;20043;-49
2020/12/02 04:05:26;;;;;;;3.17;1.73;;;;;;;8.46;87.18;101626.09;5094395;28;20089;-49
2020/12/02 04:07:54;;;;;;;4.28;2.10;;;;;;;8.44;87.15;101626.44;5086619;28;20047;-49
2020/12/02 04:10:21;;;;;;;4.47;2.75;;;;;;;8.48;87.00;101626.59;5089424;28;20063;-50
2020/12/02 04:12:47;;;;;;;4.10;1.92;;;;;;;8.45;86.98;101618.94;5093798;28;20097;-49
2020/12/02 04:15:14;;;;;;;3.72;1.85;;;;;;;8.43;87.18;101623.97;5077686;28;20399;-50
2020/12/02 04:17:42;;;;;;;4.25;1.80;;;;;;;8.44;87.33;101631.13;5083633;28;20470;-49
2020/12/02 04:20:08;;;;;;;2.58;1.90;;;;;;;8.41;87.46;101626.22;5076637;28;20490;-49
2020/12/02 04:22:35;;;;;;;4.68;1.73;;;;;;;8.42;87.37;101622.31;5085372;28;20032;-50
2020/12/02 04:25:06;;;;;;;6.05;1.80;;;;;;;8.44;87.25;101620.09;5086563;28;20040;-49
2020/12/02 04:27:32;;;;;;;5.18;1.80;;;;;;;8.44;87.30;101614.56;5085082;28;20036;-51
2020/12/02 04:29:59;;;;;;;4.68;1.90;;;;;;;8.44;87.18;101614.56;5084298;28;20156;-52
2020/12/02 04:32:25;;;;;;;3.53;1.73;;;;;;;8.44;87.34;101603.53;5094964;28;20036;-52
2020/12/02 04:34:51;;;;;;;2.88;2.15;;;;;;;8.44;87.18;101603.53;5094802;28;20462;-52
2020/12/02 04:37:17;;;;;;;6.13;2.63;;;;;;;8.41;87.07;101604.97;5076801;28;20489;-55
2020/12/02 04:39:44;;;;;;;6.30;2.45;;;;;;;8.37;87.21;101603.94;5094233;28;20040;-52
2020/12/02 04:42:10;;;;;;;7.07;2.70;;;;;;;8.35;87.15;101605.38;5095095;28;20037;-53
2020/12/02 04:44:37;;;;;;;5.15;2.63;;;;;;;8.33;87.10;101602.94;5088353;28;20437;-51
2020/12/02 04:47:11;;;;;;;7.82;3.28;;;;;;;8.34;87.28;101603.75;5074461;28;20082;-55
2020/12/02 04:49:38;;;;;;;6.13;2.78;;;;;;;8.35;87.41;101605.38;5082250;28;20501;-53
2020/12/02 04:52:11;;;;;;;7.90;3.15;;;;;;;8.38;87.31;101600.06;5074634;28;20451;-55
2020/12/02 04:54:39;;;;;;;5.53;2.90;;;;;;;8.38;87.21;101591.78;5080316;28;20036;-54
2020/12/02 04:57:06;;;;;;;7.60;3.03;;;;;;;8.39;87.46;101600.88;5074229;28;20494;-53
2020/12/02 04:59:41;;;;;;;7.78;2.92;;;;;;;8.36;87.93;101594.06;5074456;28;20545;-53
2020/12/02 05:02:23;;;;;;;5.57;2.60;;;;;;;8.38;87.99;101590.97;5091221;28;20116;-52
2020/12/02 05:04:55;;;;;;;7.97;2.67;;;;;;;8.37;88.06;101583.81;5082865;28;20083;-53
2020/12/02 05:07:24;;;;;;;8.52;2.85;;;;;;;8.38;87.86;101589.03;5087900;28;20566;-55
2020/12/02 05:09:56;;;;;;;15.23;3.83;;;;;;;8.40;87.89;101583.19;5091344;28;20155;-56
2020/12/02 05:12:26;;;;;;;4.18;2.28;;;;;;;8.39;87.98;101571.31;5083689;28;20386;-51
2020/12/02 05:14:52;;;;;;;6.20;2.55;;;;;;;8.39;87.94;101567.78;5085867;28;20064;-51
2020/12/02 05:17:21;;;;;;;6.43;2.85;;;;;;;8.41;87.96;101571.03;5084634;28;20044;-56
2020/12/02 05:20:16;;;;;;;12.80;3.05;;;;;;;8.40;88.18;101564.69;5091586;28;20043;-54
2020/12/02 05:22:49;;;;;;;10.95;4.63;;;;;;;8.39;88.02;101556.75;5092886;28;20040;-56
2020/12/02 05:25:15;;;;;;;8.38;2.78;;;;;;;8.38;88.21;101563.38;5081573;28;20036;-55
2020/12/02 05:27:46;;;;;;;5.53;3.13;;;;;;;8.36;88.33;101557.34;5093074;28;20477;-55
2020/12/02 05:30:33;;;;;;;6.70;2.80;;;;;;;8.38;88.68;101557.84;5094398;28;20036;-55
2020/12/02 05:33:10;;;;;;;6.70;2.65;;;;;;;8.37;88.30;101559.78;5073514;28;20422;-56
2020/12/02 05:35:39;;;;;;;6.03;3.22;;;;;;;8.36;88.42;101562.88;5094006;28;20036;-56
2020/12/02 05:38:09;;;;;;;4.97;2.28;;;;;;;8.37;88.34;101558.97;5090366;28;20547;-55
2020/12/02 05:40:38;;;;;;;3.85;2.63;;;;;;;8.39;88.61;101559.50;5073855;28;20060;-53
2020/12/02 05:43:18;;;;;;;4.97;2.33;;;;;;;8.37;88.33;101554.28;5073781;28;20532;-51
2020/12/02 05:45:48;;;;;;;2.15;1.55;;;;;;;8.39;88.37;101551.22;5090862;28;20500;-52
2020/12/02 05:48:27;;;;;;;4.95;1.83;;;;;;;8.35;88.73;101555.72;5093295;28;20090;-53
2020/12/02 05:50:55;;;;;;;1.85;1.65;;;;;;;8.33;88.90;101549.69;5093308;28;20111;-54
2020/12/02 05:53:29;;;;;;;0.90;0.90;;;;;;;8.32;88.97;101567.38;5092829;28;20386;-57
2020/12/02 05:55:56;;;;;;;2.28;1.00;;;;;;;8.28;88.63;101588.44;5079999;28;20040;-51
2020/12/02 05:58:28;;;;;;;8.85;2.15;;;;;;;8.12;87.20;101578.81;5073763;28;20090;-53
2020/12/02 06:00:56;;;;;;;7.80;1.88;;;;;;;7.98;87.52;101574.13;5082501;28;20047;-51
2020/12/02 06:03:32;;;;;;;9.13;1.52;;;;;;;7.80;86.54;101565.97;5087515;28;20037;-54
2020/12/02 06:06:04;;;;;;;10.93;1.50;;;;;;;7.70;86.03;101563.44;5079977;28;20101;-53
2020/12/02 06:08:34;;;;;;;8.30;2.33;;;;;;;7.62;85.98;101558.63;5092209;28;20032;-52
2020/12/02 06:11:15;;;;;;;4.00;0.93;;;;;;;7.56;84.66;101560.66;5092631;28;20485;-53
2020/12/02 06:13:42;;;;;;;8.27;1.63;;;;;;;7.57;85.13;101551.25;5092395;28;20390;-52
2020/12/02 06:16:31;;;;;;;9.27;1.67;;;;;;;7.54;84.38;101565.69;5092109;28;20043;-50
2020/12/02 06:19:16;;;;;;;14.93;2.03;;;;;;;7.49;82.92;101560.25;5082747;28;20055;-51
2020/12/02 06:21:44;;;;;;;11.55;3.15;;;;;;;7.47;84.00;101567.16;5091683;28;20091;-50
2020/12/02 06:24:14;;;;;;;12.82;2.85;;;;;;;7.44;83.32;101568.59;5092306;28;20072;-51
2020/12/02 06:26:43;;;;;;;10.85;1.92;;;;;;;7.46;83.65;101565.56;5092858;28;20033;-51
2020/12/02 06:29:25;;;;;;;9.77;2.60;;;;;;;7.40;83.04;101567.59;5092590;28;20459;-54
2020/12/02 06:31:59;;;;;;;19.13;3.43;;;;;;;7.39;83.28;101565.94;5092508;28;20032;-55
2020/12/02 06:34:32;;;;;;;9.15;1.90;;;;;;;7.32;82.54;101565.53;5074201;28;20143;-52
2020/12/02 06:37:26;;;;;;;17.15;2.88;;;;;;;7.26;82.40;101559.28;5082184;28;20071;-54
2020/12/02 06:39:58;;;;;;;20.27;5.07;;;;;;;7.27;82.95;101560.13;5070510;28;20114;-54
2020/12/02 06:42:44;;;;;;;12.55;2.15;;;;;;;7.25;82.70;101559.63;5074277;28;20028;-53
2020/12/02 06:45:16;;;;;;;9.27;1.85;;;;;;;7.28;83.00;101550.75;5094741;28;20093;-54
2020/12/02 06:47:56;;;;;;;15.48;2.00;;;;;;;7.25;82.16;101546.63;5077288;28;20043;-51
2020/12/02 06:50:26;;;;;;;13.68;2.78;;;;;;;7.24;82.83;101542.25;5094012;28;20493;-50
2020/12/02 06:52:56;;;;;;;11.65;2.80;;;;;;;7.26;82.73;101547.47;5092042;28;20032;-51
2020/12/02 06:55:26;;;;;;;14.73;3.10;;;;;;;7.25;82.79;101543.09;5085154;28;20087;-50
2020/12/02 06:58:02;;;;;;;18.27;3.28;;;;;;;7.23;81.82;101542.56;5097010;28;20036;-55
2020/12/02 07:00:37;;;;;;;16.23;4.40;;;;;;;7.22;82.56;101540.94;5096019;28;20063;-53
2020/12/02 07:03:17;;;;;;;17.08;3.50;;;;;;;7.22;82.41;101540.94;5071122;28;20108;-50
2020/12/02 07:05:44;;;;;;;16.33;4.70;;;;;;;7.22;82.53;101538.19;5085237;28;20036;-52
2020/12/02 07:08:16;;;;;;;18.45;3.78;;;;;;;7.22;82.58;101544.50;5096000;28;20044;-51
2020/12/02 07:10:52;;;;;;;;;;;;;;;7.19;81.38;101534.09;5089453;28;20086;-53
2020/12/02 07:13:21;;;;;;;22.83;4.93;;;;;;;7.25;82.51;101532.06;5086461;28;20384;-50
2020/12/02 07:15:47;;;;;;;20.10;3.45;;;;;;;7.25;82.36;101537.59;5079829;28;20450;-53
2020/12/02 07:18:18;;;;;;;16.70;3.33;;;;;;;7.21;82.18;101534.59;5096596;28;20040;-50
2020/12/02 07:20:54;;;;;;;18.23;3.78;;;;;;;7.19;82.33;101527.75;5095536;28;20487;-50
2020/12/02 07:23:21;;;;;;;15.15;3.05;;;;;;;7.16;82.45;101540.22;5085039;28;20071;-53
2020/12/02 07:25:48;;;;;;;15.25;2.97;;;;;;;7.11;82.34;101542.22;5093996;28;20072;-52
2020/12/02 07:28:21;;;;;;;19.17;3.38;;;;;;;7.03;82.38;101540.16;5095578;28;20426;-51
2020/12/02 07:30:48;;;;;;;22.23;3.25;;;;;;;6.99;82.51;101530.91;5096111;28;20043;-52
2020/12/02 07:33:30;;;;;;;19.15;3.70;;;;;;;6.95;82.04;101538.13;5083076;28;20075;-51
2020/12/02 07:36:18;;;;;;;14.97;3.53;;;;;;;6.90;82.09;101536.28;5091721;28;20040;-52
2020/12/02 07:38:45;;;;;;;15.60;3.47;;;;;;;6.86;82.57;101542.69;5089257;28;20036;-52
2020/12/02 07:41:15;;;;;;;14.52;3.35;;;;;;;6.78;82.51;101533.16;5095344;28;20040;-52
2020/12/02 07:43:47;;;;;;;7.32;2.35;;;;;;;6.72;82.59;101535.16;5090708;28;20384;-54
2020/12/02 07:46:14;;;;;;;10.82;3.85;;;;;;;6.69;82.74;101535.78;5084992;28;20363;-52
2020/12/02 07:48:42;;;;;;;18.63;3.35;;;;;;;6.69;82.57;101533.03;5086891;28;20055;-50
2020/12/02 07:51:12;;;;;;;18.38;3.67;;;;;;;6.65;82.65;101523.75;5094094;28;20048;-50
2020/12/02 07:53:44;;;;;;;18.83;4.30;;;;;;;6.65;82.53;101515.50;5086443;28;20135;-53
2020/12/02 07:56:21;;;;;;;16.88;3.72;;;;;;;6.61;83.00;101514.47;5084649;28;20040;-52
2020/12/02 07:58:49;;;;;;;14.27;3.08;;;;;;;6.58;82.78;101523.31;5072113;28;20128;-53
2020/12/02 08:01:21;;;;;;;15.55;4.03;;;;;;;6.56;82.68;101544.81;5087664;28;20032;-53
2020/12/02 08:03:48;;;;;;;17.90;3.25;;;;;;;6.53;82.71;101548.16;5089110;28;20060;-52
2020/12/02 08:06:36;;;;;;;18.33;3.25;;;;;;;6.52;82.85;101563.03;5074945;28;20068;-52
2020/12/02 08:09:02;;;;;;;14.98;2.90;;;;;;;6.47;83.17;101554.84;5080565;28;20124;-51
2020/12/02 08:11:29;;;;;;;19.13;2.58;;;;;;;6.44;83.02;101555.44;5089979;28;20072;-55
2020/12/02 08:13:57;;;;;;;18.00;3.85;;;;;;;6.42;83.10;101551.34;5056421;28;20162;-53
2020/12/02 08:16:44;;;;;;;14.27;3.22;;;;;;;6.37;83.12;101549.50;5087812;28;20036;-53
2020/12/02 08:19:12;;;;;;;21.58;3.22;;;;;;;6.35;83.08;101551.75;5097684;28;20035;-55
2020/12/02 08:21:50;;;;;;;21.65;4.90;;;;;;;6.31;82.96;101556.19;5080650;28;20486;-55
2020/12/02 08:24:29;;;;;;;18.58;3.67;;;;;;;6.27;83.04;101557.91;5073235;28;20045;-53
2020/12/02 08:27:12;;;;;;;26.05;4.53;;;;;;;6.27;82.93;101566.16;5094993;28;20085;-54
2020/12/02 08:29:48;;;;;;;16.95;3.55;;;;;;;6.27;83.20;101571.66;5072687;28;20119;-55
2020/12/02 08:32:32;;;;;;;24.38;3.65;;;;;;;6.24;83.03;101566.75;5086105;28;20036;-54
2020/12/02 08:35:18;;;;;;;21.40;3.70;;;;;;;6.21;83.00;101561.81;5091419;28;20570;-51
2020/12/02 08:37:51;;;;;;;10.15;2.25;;;;;;;6.15;83.04;101560.25;5078590;28;20487;-55
2020/12/02 08:40:48;;;;;;;15.02;2.90;;;;;;;6.12;82.85;101558.91;5090198;28;20079;-51
2020/12/02 08:43:21;;;;;;;19.55;4.95;;;;;;;6.09;83.02;101554.00;5098619;28;20059;-52
2020/12/02 08:46:07;;;;;;;16.42;3.03;;;;;;;6.10;82.77;101560.31;5091691;28;20036;-50
2020/12/02 08:48:35;;;;;;;11.43;3.10;;;;;;;6.06;82.81;101564.78;5091793;28;20044;-53
2020/12/02 08:51:14;;;;;;;28.80;4.00;;;;;;;6.06;82.64;101559.28;5088170;28;20116;-49
2020/12/02 08:53:46;;;;;;;20.20;3.72;;;;;;;6.03;82.75;101546.97;5092362;28;20043;-54
2020/12/02 08:56:31;;;;;;;17.60;3.67;;;;;;;6.04;82.56;101534.84;5090357;28;20028;-53
2020/12/02 08:58:58;;;;;;;16.02;3.60;;;;;;;6.02;82.62;101536.25;5074914;28;20037;-51
2020/12/02 09:01:25;;;;;;;12.48;2.50;;;;;;;6.00;82.73;101522.81;5073407;28;20040;-50
2020/12/02 09:03:51;;;;;;;15.95;3.80;;;;;;;5.99;82.69;101517.59;5091578;28;20082;-54
2020/12/02 09:06:20;;;;;;;22.85;4.05;;;;;;;6.00;82.55;101519.25;5083771;28;20090;-50
2020/12/02 09:08:47;;;;;;;20.85;4.20;;;;;;;6.00;82.63;101524.72;5080617;28;20109;-55
2020/12/02 09:11:19;;;;;;;23.92;3.17;;;;;;;5.99;82.37;101515.66;5090271;28;20085;-52
2020/12/02 09:13:46;;;;;;;18.17;3.83;;;;;;;6.00;82.42;101508.25;5086533;28;20086;-52
2020/12/02 09:16:12;;;;;;;15.68;4.45;;;;;;;6.00;82.28;101511.81;5095612;28;20465;-53
2020/12/02 09:18:38;;;;;;;22.80;5.20;;;;;;;6.01;82.26;101515.38;5092681;28;20481;-53
2020/12/02 09:21:04;;;;;;;27.02;5.05;;;;;;;5.99;82.42;101520.34;5090353;28;20093;-51
2020/12/02 09:23:34;;;;;;;15.15;4.20;;;;;;;6.01;82.26;101509.88;5087578;28;20048;-50
2020/12/02 09:26:00;;;;;;;21.77;5.13;;;;;;;5.99;82.17;101512.09;5080232;28;20066;-53
2020/12/02 09:28:27;;;;;;;12.05;3.15;;;;;;;5.95;82.03;101514.63;5081783;28;20036;-51
2020/12/02 09:30:53;;;;;;;16.23;3.58;;;;;;;5.97;82.24;101506.09;5077198;28;20033;-54
2020/12/02 09:33:19;;;;;;;19.77;4.38;;;;;;;6.02;82.21;101503.25;5081305;28;20128;-54
2020/12/02 09:35:46;;;;;;;15.13;3.42;;;;;;;6.05;81.80;101499.94;5072275;28;20044;-53
2020/12/02 09:38:13;;;;;;;18.90;4.78;;;;;;;6.04;81.83;101503.78;5055141;28;20068;-53
2020/12/02 09:40:40;;;;;;;13.20;3.13;;;;;;;6.00;81.75;101500.00;5072384;28;20071;-56
2020/12/02 09:43:30;;;;;;;24.00;4.68;;;;;;;5.99;81.72;101492.84;5087019;28;20064;-53
2020/12/02 09:46:12;;;;;;;15.82;3.70;;;;;;;6.01;81.65;101496.16;5071548;28;20041;-51
2020/12/02 09:48:38;;;;;;;22.55;4.50;;;;;;;6.02;81.83;101498.59;5085241;28;20489;-50
2020/12/02 09:51:23;;;;;;;17.42;3.70;;;;;;;6.08;81.87;101486.41;5090486;28;20130;-51
2020/12/02 09:53:50;;;;;;;22.15;4.90;;;;;;;6.16;81.59;101500.59;5083166;28;20067;-51
2020/12/02 09:56:17;;;;;;;10.70;3.08;;;;;;;6.21;81.77;101479.34;5090340;28;20044;-50
2020/12/02 09:58:43;;;;;;;16.90;4.10;;;;;;;6.23;81.22;101479.84;5091678;28;20039;-50
2020/12/02 10:01:15;;;;;;;11.30;3.17;;;;;;;6.23;81.42;101479.84;5089979;28;20135;-51
2020/12/02 10:03:57;;;;;;;16.70;3.28;;;;;;;6.27;81.31;101472.66;5084741;28;20032;-50
2020/12/02 10:06:49;;;;;;;11.40;3.10;;;;;;;6.32;80.67;101466.25;5079922;28;20044;-51
2020/12/02 10:09:37;;;;;;;14.70;2.92;;;;;;;6.38;81.12;101459.56;5087321;28;20056;-52
2020/12/02 10:12:36;;;;;;;11.07;3.25;;;;;;;6.39;80.64;101453.75;5081340;28;20036;-52
2020/12/02 10:15:27;;;;;;;14.57;3.20;;;;;;;6.42;80.42;101444.09;5084253;28;20079;-51
2020/12/02 10:18:15;;;;;;;12.57;2.97;;;;;;;6.43;80.46;101449.31;5072332;28;20073;-54
2020/12/02 10:20:49;;;;;;;19.42;4.95;;;;;;;6.44;80.57;101444.59;5081361;28;20074;-54
2020/12/02 10:23:24;;;;;;;14.68;3.17;;;;;;;6.41;80.23;101435.00;5088427;28;20405;-51
2020/12/02 10:26:31;;;;;;;12.18;2.70;;;;;;;6.32;79.60;101442.34;5090702;28;20036;-52
2020/12/02 10:29:25;;;;;;;11.95;3.88;;;;;;;6.29;79.97;101431.94;5079151;28;20089;-53
2020/12/02 10:32:12;;;;;;;13.45;4.03;;;;;;;6.21;79.82;101424.34;5090941;28;20044;-51
2020/12/02 10:34:42;;;;;;;14.65;3.65;;;;;;;6.19;80.32;101420.28;5088107;28;20101;-50
2020/12/02 10:37:33;;;;;;;17.48;2.72;;;;;;;6.12;79.89;101421.47;5088855;28;20052;-50
2020/12/02 10:40:00;;;;;;;9.85;2.47;;;;;;;6.09;79.88;101424.81;5090190;28;20089;-52
2020/12/02 10:43:12;;;;;;;8.73;2.58;;;;;;;6.00;79.22;101414.78;5090071;28;20044;-51
2020/12/02 10:45:38;;;;;;;11.40;2.65;;;;;;;5.99;80.17;101407.66;5067991;28;20084;-50
2020/12/02 10:48:21;;;;;;;16.45;3.10;;;;;;;6.01;80.09;101402.69;5070501;28;20072;-51
2020/12/02 10:50:49;;;;;;;14.05;2.88;;;;;;;6.09;80.05;101399.25;5085280;28;20093;-49
2020/12/02 10:53:24;;;;;;;11.88;3.30;;;;;;;6.12;79.85;101388.47;5087732;28;20037;-49
2020/12/02 10:55:51;;;;;;;16.77;3.97;;;;;;;6.16;79.96;101396.94;5070539;28;20455;-55
2020/12/02 10:58:28;;;;;;;14.95;4.03;;;;;;;6.19;79.75;101384.53;5087959;28;20044;-52
2020/12/02 11:00:58;;;;;;;15.18;3.97;;;;;;;6.23;79.80;101377.31;5090672;28;20040;-48
2020/12/02 11:03:33;;;;;;;11.43;3.70;;;;;;;6.26;79.72;101377.53;5089265;28;20048;-53
2020/12/02 11:06:13;;;;;;;14.73;2.58;;;;;;;6.29;79.40;101376.94;5087679;28;20391;-52
2020/12/02 11:08:54;;;;;;;24.48;4.57;;;;;;;6.31;79.20;101369.19;5079577;28;20466;-52
2020/12/02 11:11:43;;;;;;;11.15;2.45;;;;;;;6.36;79.66;101360.03;5070146;28;20084;-53
2020/12/02 11:14:54;;;;;;;10.70;2.33;;;;;;;6.42;79.32;101354.16;5071572;28;20090;-54
2020/12/02 11:17:36;;;;;;;11.30;3.42;;;;;;;6.46;79.67;101349.66;5081810;28;20135;-52
2020/12/02 11:20:08;;;;;;;18.10;2.83;;;;;;;6.49;79.20;101337.22;5068316;28;20033;-53
2020/12/02 11:22:49;;;;;;;23.25;3.10;;;;;;;6.51;79.48;101337.75;5069284;28;20512;-54
2020/12/02 11:25:26;;;;;;;13.80;2.65;;;;;;;6.52;79.08;101333.88;5062456;28;20098;-53
2020/12/02 11:27:53;;;;;;;19.67;3.10;;;;;;;6.53;79.58;101325.34;5066580;28;20055;-54
2020/12/02 11:30:34;;;;;;;14.07;3.13;;;;;;;6.54;78.49;101317.91;5071887;28;20036;-53
2020/12/02 11:33:10;;;;;;;16.25;3.67;;;;;;;6.61;79.12;101310.88;5073544;28;20433;-50
2020/12/02 11:35:57;;;;;;;20.33;2.75;;;;;;;6.70;78.87;101306.28;5073289;28;20785;-53
2020/12/02 11:38:42;;;;;;;17.70;3.45;;;;;;;6.77;78.46;101292.13;5073505;28;20090;-50
2020/12/02 11:41:22;;;;;;;16.95;3.40;;;;;;;6.79;78.07;101275.28;5072607;28;20506;-52
2020/12/02 11:43:55;;;;;;;7.60;2.00;;;;;;;6.83;78.44;101281.84;5072668;28;20033;-53
2020/12/02 11:46:22;;;;;;;13.23;2.90;;;;;;;6.88;78.92;101267.97;5073434;28;20041;-51
2020/12/02 11:49:06;;;;;;;10.57;2.60;;;;;;;6.89;78.20;101253.88;5073375;28;20055;-53
2020/12/02 11:52:23;;;;;;;15.75;3.40;;;;;;;6.86;77.13;101259.19;5044123;28;20135;-52
2020/12/02 11:54:54;;;;;;;14.95;5.05;;;;;;;6.82;78.33;101260.94;5072833;28;20086;-50
2020/12/02 11:57:21;;;;;;;14.30;3.27;;;;;;;6.84;78.54;101245.72;5072663;28;20033;-54